Time;durP1;ratioP1;P1;durP2;ratioP2;P2;SDS_P1;SDS_P2;PMS_P1;PMS_P2;Temp;Humidity;BMP_temperature;BMP_pressure;BME280_temperature;BME280_humidity;BME280_pressure;Samples;Min_cycle;Max_cycle;Signal;HPM_P1;HPM_P2
2022/04/07 00:01:10;;;;;;;2.13;1.92;;;;;;;;;;5085104;28;20212;-78
2022/04/07 00:03:38;;;;;;;2.15;1.60;;;;;;;;;;5074892;28;20202;-78
2022/04/07 00:06:09;;;;;;;1.70;1.60;;;;;;;;;;5076116;28;20217;-78
2022/04/07 00:08:36;;;;;;;2.30;1.48;;;;;;;;;;5084782;28;20292;-78
2022/04/07 00:11:04;;;;;;;3.50;2.00;;;;;;;;;;5079116;28;20202;-78
2022/04/07 00:13:31;;;;;;;2.03;1.80;;;;;;;;;;5082796;28;20194;-79
2022/04/07 00:15:59;;;;;;;4.03;1.98;;;;;;;;;;5080708;28;20208;-78
2022/04/07 00:18:26;;;;;;;1.98;1.88;;;;;;;;;;5080178;28;20194;-79
2022/04/07 00:20:54;;;;;;;1.55;1.45;;;;;;;;;;5079260;28;20201;-79
2022/04/07 00:23:21;;;;;;;1.88;1.60;;;;;;;;;;5073478;28;20202;-79
2022/04/07 00:25:49;;;;;;;1.80;1.70;;;;;;;;;;5083791;28;20205;-79
2022/04/07 00:28:16;;;;;;;2.00;1.70;;;;;;;;;;5081288;28;20304;-79
2022/04/07 00:30:44;;;;;;;1.65;1.55;;;;;;;;;;5078702;28;20202;-79
2022/04/07 00:33:12;;;;;;;3.33;2.10;;;;;;;;;;5079836;28;20260;-78
2022/04/07 00:35:39;;;;;;;2.15;1.90;;;;;;;;;;5085408;28;20198;-80
2022/04/07 00:38:08;;;;;;;2.53;1.88;;;;;;;;;;5069675;28;20206;-79
2022/04/07 00:40:35;;;;;;;1.35;1.25;;;;;;;;;;5076966;28;20205;-78
2022/04/07 00:43:02;;;;;;;1.70;1.30;;;;;;;;;;5079408;28;20202;-77
2022/04/07 00:45:29;;;;;;;3.75;1.85;;;;;;;;;;5077112;28;20202;-78
2022/04/07 00:47:58;;;;;;;3.47;1.77;;;;;;;;;;5081986;28;20218;-78
2022/04/07 00:50:25;;;;;;;1.63;1.50;;;;;;;;;;5070648;28;20205;-80
2022/04/07 00:52:53;;;;;;;2.10;1.50;;;;;;;;;;5074897;28;20205;-78
2022/04/07 00:55:21;;;;;;;1.40;1.23;;;;;;;;;;5085802;28;20529;-75
2022/04/07 00:57:49;;;;;;;2.38;1.73;;;;;;;;;;5071000;28;20198;-77
2022/04/07 01:00:16;;;;;;;2.30;1.63;;;;;;;;;;5079896;28;20560;-76
2022/04/07 01:02:44;;;;;;;2.28;1.40;;;;;;;;;;5081720;28;20209;-77
2022/04/07 01:05:11;;;;;;;2.58;1.60;;;;;;;;;;5070277;28;20205;-78
2022/04/07 01:07:39;;;;;;;2.55;1.50;;;;;;;;;;5077719;28;20692;-79
2022/04/07 01:10:08;;;;;;;1.35;1.20;;;;;;;;;;5086492;28;20201;-80
2022/04/07 01:12:36;;;;;;;2.97;1.58;;;;;;;;;;5074247;28;20205;-79
2022/04/07 01:15:05;;;;;;;1.40;1.10;;;;;;;;;;5077309;28;20206;-80
2022/04/07 01:17:34;;;;;;;1.63;1.40;;;;;;;;;;5068736;28;20210;-80
2022/04/07 01:20:01;;;;;;;3.63;1.27;;;;;;;;;;5085590;28;20201;-81
2022/04/07 01:22:28;;;;;;;1.77;1.67;;;;;;;;;;5072292;28;20201;-80
2022/04/07 01:24:57;;;;;;;2.80;1.60;;;;;;;;;;5081601;28;20198;-79
2022/04/07 01:27:25;;;;;;;1.90;1.58;;;;;;;;;;5070953;28;20271;-79
2022/04/07 01:29:53;;;;;;;1.30;1.20;;;;;;;;;;5080726;28;20298;-79
2022/04/07 01:32:22;;;;;;;2.20;1.65;;;;;;;;;;5079639;28;20255;-79
2022/04/07 01:34:50;;;;;;;2.13;1.35;;;;;;;;;;5080563;28;20205;-79
2022/04/07 01:37:18;;;;;;;2.50;1.40;;;;;;;;;;5079598;28;20193;-79
2022/04/07 01:39:46;;;;;;;1.75;1.35;;;;;;;;;;5082744;28;20212;-79
2022/04/07 01:42:15;;;;;;;1.25;1.13;;;;;;;;;;5084871;28;20204;-79
2022/04/07 01:44:46;;;;;;;2.45;1.45;;;;;;;;;;5081557;28;20194;-79
2022/04/07 01:47:14;;;;;;;2.17;0.95;;;;;;;;;;5079912;28;20209;-80
2022/04/07 01:49:43;;;;;;;2.95;1.50;;;;;;;;;;5073866;28;20243;-80
2022/04/07 01:52:10;;;;;;;3.25;1.20;;;;;;;;;;5081083;28;20198;-81
2022/04/07 01:54:37;;;;;;;2.83;1.10;;;;;;;;;;5085199;28;20209;-79
2022/04/07 01:57:05;;;;;;;2.50;1.30;;;;;;;;;;5088457;28;20198;-79
2022/04/07 01:59:34;;;;;;;2.05;1.50;;;;;;;;;;5086768;28;20202;-78
2022/04/07 02:02:01;;;;;;;2.05;1.10;;;;;;;;;;5082319;28;20202;-80
2022/04/07 02:04:28;;;;;;;1.75;1.50;;;;;;;;;;5081537;28;20564;-79
2022/04/07 02:06:56;;;;;;;5.53;1.30;;;;;;;;;;5079824;28;20280;-79
2022/04/07 02:09:23;;;;;;;3.25;1.05;;;;;;;;;;5082333;28;20201;-79
2022/04/07 02:11:50;;;;;;;2.15;1.42;;;;;;;;;;5078673;28;20662;-79
2022/04/07 02:14:54;;;;;;;6.03;1.30;;;;;;;;;;5077091;28;20205;-79
2022/04/07 02:17:23;;;;;;;3.85;1.60;;;;;;;;;;5076121;28;20197;-78
2022/04/07 02:19:50;;;;;;;1.92;1.25;;;;;;;;;;5075913;28;20618;-79
2022/04/07 02:22:17;;;;;;;2.72;1.60;;;;;;;;;;5073434;28;20673;-75
2022/04/07 02:24:44;;;;;;;3.75;1.70;;;;;;;;;;5072058;28;20707;-75
2022/04/07 02:27:12;;;;;;;3.55;1.20;;;;;;;;;;5082112;28;20217;-78
2022/04/07 02:29:40;;;;;;;1.65;1.00;;;;;;;;;;5084752;28;20197;-77
2022/04/07 02:32:07;;;;;;;1.75;1.10;;;;;;;;;;5083230;28;20256;-76
2022/04/07 02:34:36;;;;;;;2.58;1.20;;;;;;;;;;5077708;28;20209;-77
2022/04/07 02:37:03;;;;;;;1.95;1.20;;;;;;;;;;5087421;28;20194;-78
2022/04/07 02:39:30;;;;;;;1.80;1.65;;;;;;;;;;5074765;28;20198;-77
2022/04/07 02:41:57;;;;;;;4.63;0.98;;;;;;;;;;5086896;28;20205;-75
2022/04/07 02:44:24;;;;;;;1.75;1.10;;;;;;;;;;5081455;28;20208;-78
2022/04/07 02:46:51;;;;;;;2.45;1.15;;;;;;;;;;5080457;28;20198;-79
2022/04/07 02:49:19;;;;;;;2.22;1.38;;;;;;;;;;5084726;28;20202;-79
2022/04/07 02:51:47;;;;;;;2.90;1.38;;;;;;;;;;5084914;28;20557;-79
2022/04/07 02:54:14;;;;;;;2.25;1.15;;;;;;;;;;5080622;28;20194;-79
2022/04/07 02:56:41;;;;;;;2.25;1.25;;;;;;;;;;5081037;28;20204;-79
2022/04/07 02:59:08;;;;;;;1.45;1.08;;;;;;;;;;5085955;28;20660;-79
2022/04/07 03:01:35;;;;;;;2.55;1.30;;;;;;;;;;5085169;28;20656;-79
2022/04/07 03:04:02;;;;;;;3.33;1.20;;;;;;;;;;5087246;28;20649;-79
2022/04/07 03:06:30;;;;;;;2.10;1.08;;;;;;;;;;5084293;28;20196;-79
2022/04/07 03:08:58;;;;;;;1.73;1.33;;;;;;;;;;5075189;28;20240;-79
2022/04/07 03:11:25;;;;;;;4.75;1.30;;;;;;;;;;5089166;28;20205;-79
2022/04/07 03:13:52;;;;;;;1.70;1.17;;;;;;;;;;5091035;28;20198;-79
2022/04/07 03:16:20;;;;;;;1.33;1.20;;;;;;;;;;5077242;28;20207;-79
2022/04/07 03:18:50;;;;;;;3.50;1.20;;;;;;;;;;5081392;28;20227;-78
2022/04/07 03:21:17;;;;;;;1.27;0.95;;;;;;;;;;5092726;28;20197;-80
2022/04/07 03:23:44;;;;;;;2.25;1.33;;;;;;;;;;5080676;28;20210;-79
2022/04/07 03:26:13;;;;;;;2.15;1.33;;;;;;;;;;5083184;28;20210;-79
2022/04/07 03:28:40;;;;;;;1.23;1.13;;;;;;;;;;5075643;28;20221;-79
2022/04/07 03:31:07;;;;;;;3.47;1.23;;;;;;;;;;5087585;28;20200;-78
2022/04/07 03:33:34;;;;;;;1.63;1.00;;;;;;;;;;5076720;28;20202;-79
2022/04/07 03:36:01;;;;;;;2.10;1.20;;;;;;;;;;5086636;28;20198;-80
2022/04/07 03:38:28;;;;;;;1.40;1.20;;;;;;;;;;5080134;28;20498;-79
2022/04/07 03:40:55;;;;;;;1.88;1.40;;;;;;;;;;5082439;28;20193;-79
2022/04/07 03:43:24;;;;;;;2.80;1.30;;;;;;;;;;5074334;28;20197;-79
2022/04/07 03:45:51;;;;;;;1.50;1.40;;;;;;;;;;5078873;28;20510;-79
2022/04/07 03:48:18;;;;;;;2.92;1.05;;;;;;;;;;5075543;28;20241;-80
2022/04/07 03:50:45;;;;;;;1.90;1.15;;;;;;;;;;5077830;28;20194;-79
2022/04/07 03:53:12;;;;;;;3.15;1.10;;;;;;;;;;5078379;28;20747;-79
2022/04/07 03:55:39;;;;;;;1.58;1.48;;;;;;;;;;5074630;28;20202;-79
2022/04/07 03:58:06;;;;;;;2.22;1.38;;;;;;;;;;5088385;28;20193;-79
2022/04/07 04:00:35;;;;;;;2.88;1.10;;;;;;;;;;5080582;28;20224;-79
2022/04/07 04:03:02;;;;;;;1.50;0.90;;;;;;;;;;5082327;28;20213;-79
2022/04/07 04:05:29;;;;;;;2.25;1.10;;;;;;;;;;5086043;28;20197;-79
2022/04/07 04:07:56;;;;;;;3.85;1.25;;;;;;;;;;5089691;28;20217;-79
2022/04/07 04:10:24;;;;;;;2.40;1.33;;;;;;;;;;5082914;28;20201;-79
2022/04/07 04:12:51;;;;;;;2.13;1.25;;;;;;;;;;5079883;28;20198;-79
2022/04/07 04:15:19;;;;;;;2.45;1.10;;;;;;;;;;5077607;28;20567;-80
2022/04/07 04:17:47;;;;;;;2.60;1.00;;;;;;;;;;5083445;28;20649;-79
2022/04/07 04:20:14;;;;;;;1.45;1.00;;;;;;;;;;5084987;28;20198;-79
2022/04/07 04:22:41;;;;;;;3.15;1.05;;;;;;;;;;5071911;28;20210;-80
2022/04/07 04:25:09;;;;;;;1.75;1.10;;;;;;;;;;5074300;28;20201;-78
2022/04/07 04:27:36;;;;;;;1.17;0.93;;;;;;;;;;5084165;28;20221;-79
2022/04/07 04:30:04;;;;;;;1.88;1.02;;;;;;;;;;5083145;28;20583;-79
2022/04/07 04:32:31;;;;;;;1.75;1.40;;;;;;;;;;5084774;28;20707;-80
2022/04/07 04:34:59;;;;;;;8.32;1.60;;;;;;;;;;5069550;28;20190;-80
2022/04/07 04:37:27;;;;;;;2.97;1.20;;;;;;;;;;5075496;28;20204;-79
2022/04/07 04:39:54;;;;;;;2.63;1.13;;;;;;;;;;5078984;28;20232;-78
2022/04/07 04:42:21;;;;;;;1.70;1.17;;;;;;;;;;5076718;28;20664;-78
2022/04/07 04:44:49;;;;;;;3.17;1.60;;;;;;;;;;5084285;28;20202;-79
2022/04/07 04:47:18;;;;;;;2.58;1.20;;;;;;;;;;5080017;28;20246;-79
2022/04/07 04:49:45;;;;;;;1.58;1.23;;;;;;;;;;5082366;28;20217;-79
2022/04/07 04:52:14;;;;;;;2.45;1.08;;;;;;;;;;5078853;28;20992;-80
2022/04/07 04:54:41;;;;;;;1.85;1.20;;;;;;;;;;5080486;28;20544;-80
2022/04/07 04:57:08;;;;;;;3.00;1.42;;;;;;;;;;5084054;28;20672;-80
2022/04/07 04:59:36;;;;;;;2.33;1.17;;;;;;;;;;5080758;28;20191;-80
2022/04/07 05:02:04;;;;;;;4.72;1.45;;;;;;;;;;5077437;28;20202;-80
2022/04/07 05:04:31;;;;;;;1.10;0.80;;;;;;;;;;5082412;28;20205;-80
2022/04/07 05:06:58;;;;;;;2.47;1.40;;;;;;;;;;5091626;28;20400;-80
2022/04/07 05:09:27;;;;;;;4.18;1.17;;;;;;;;;;5078959;28;20229;-79
2022/04/07 05:11:54;;;;;;;3.67;1.35;;;;;;;;;;5084910;28;20201;-80
2022/04/07 05:14:21;;;;;;;2.83;1.25;;;;;;;;;;5092846;28;20204;-80
2022/04/07 05:16:48;;;;;;;5.60;1.20;;;;;;;;;;5088393;28;20202;-80
2022/04/07 05:19:15;;;;;;;4.95;1.35;;;;;;;;;;5083303;28;20228;-80
2022/04/07 05:21:44;;;;;;;2.90;1.30;;;;;;;;;;5086144;28;20650;-79
2022/04/07 05:24:11;;;;;;;2.10;1.08;;;;;;;;;;5077986;28;20202;-80
2022/04/07 05:26:39;;;;;;;5.90;1.30;;;;;;;;;;5092137;28;20209;-79
2022/04/07 05:29:06;;;;;;;2.15;1.48;;;;;;;;;;5083573;28;20229;-79
2022/04/07 05:31:33;;;;;;;1.92;1.20;;;;;;;;;;5091600;28;20197;-80
2022/04/07 05:34:01;;;;;;;2.70;1.35;;;;;;;;;;5077938;28;20284;-79
2022/04/07 05:36:28;;;;;;;1.50;1.35;;;;;;;;;;5091527;28;20187;-79
2022/04/07 05:38:55;;;;;;;4.47;1.50;;;;;;;;;;5086515;28;20202;-79
2022/04/07 05:41:22;;;;;;;2.95;1.42;;;;;;;;;;5089980;28;20216;-79
2022/04/07 05:43:51;;;;;;;1.30;1.20;;;;;;;;;;5092221;28;20583;-79
2022/04/07 05:46:18;;;;;;;2.13;1.00;;;;;;;;;;5080094;28;20200;-79
2022/04/07 05:48:45;;;;;;;1.50;1.30;;;;;;;;;;5082071;28;20217;-79
2022/04/07 05:51:13;;;;;;;1.33;1.17;;;;;;;;;;5080880;28;20192;-79
2022/04/07 05:53:40;;;;;;;3.80;1.27;;;;;;;;;;5077034;28;20296;-79
2022/04/07 05:56:07;;;;;;;1.40;1.05;;;;;;;;;;5086318;28;20196;-80
2022/04/07 05:58:34;;;;;;;1.42;1.05;;;;;;;;;;5078190;28;20201;-79
2022/04/07 06:01:03;;;;;;;2.38;1.33;;;;;;;;;;5080453;28;20204;-79
2022/04/07 06:03:31;;;;;;;2.50;1.45;;;;;;;;;;5084942;28;20200;-79
2022/04/07 06:05:58;;;;;;;1.20;1.10;;;;;;;;;;5086134;28;20204;-79
2022/04/07 06:08:25;;;;;;;1.85;1.20;;;;;;;;;;5088472;28;20224;-80
2022/04/07 06:10:52;;;;;;;2.25;1.50;;;;;;;;;;5084303;28;20208;-79
2022/04/07 06:13:19;;;;;;;4.07;1.10;;;;;;;;;;5077688;28;20490;-80
2022/04/07 06:15:47;;;;;;;1.35;1.00;;;;;;;;;;5074384;28;20603;-79
2022/04/07 06:18:16;;;;;;;1.45;1.13;;;;;;;;;;5078495;28;20197;-79
2022/04/07 06:20:46;;;;;;;2.25;1.50;;;;;;;;;;5080682;28;20686;-79
2022/04/07 06:23:13;;;;;;;1.27;1.08;;;;;;;;;;5076168;28;20205;-80
2022/04/07 06:25:41;;;;;;;2.03;1.20;;;;;;;;;;5082719;28;20227;-80
2022/04/07 06:28:08;;;;;;;2.60;1.10;;;;;;;;;;5075898;28;20814;-80
2022/04/07 06:30:35;;;;;;;1.35;1.17;;;;;;;;;;5077313;28;20206;-79
2022/04/07 06:33:02;;;;;;;1.30;1.10;;;;;;;;;;5076222;28;20684;-80
2022/04/07 06:35:30;;;;;;;1.55;1.10;;;;;;;;;;5075491;28;20208;-80
2022/04/07 06:37:58;;;;;;;1.10;1.00;;;;;;;;;;5086583;28;20664;-81
2022/04/07 06:40:26;;;;;;;2.53;1.48;;;;;;;;;;5081727;28;20221;-80
2022/04/07 06:42:54;;;;;;;1.55;1.10;;;;;;;;;;5076458;28;20208;-82
2022/04/07 06:45:21;;;;;;;4.43;1.38;;;;;;;;;;5075585;28;20198;-81
2022/04/07 06:47:48;;;;;;;1.23;1.13;;;;;;;;;;5087155;28;20602;-79
2022/04/07 06:50:15;;;;;;;1.27;1.17;;;;;;;;;;5078744;28;20224;-79
2022/04/07 06:52:44;;;;;;;2.17;1.40;;;;;;;;;;5071753;28;20201;-79
2022/04/07 06:55:12;;;;;;;1.80;1.65;;;;;;;;;;5083645;28;20200;-79
2022/04/07 06:57:49;;;;;;;2.10;1.90;;;;;;;;;;5080296;28;20206;-79
2022/04/07 07:00:17;;;;;;;1.77;1.50;;;;;;;;;;5081349;28;20193;-79
2022/04/07 07:02:45;;;;;;;1.90;1.10;;;;;;;;;;5081406;28;20243;-79
2022/04/07 07:05:12;;;;;;;1.35;1.20;;;;;;;;;;5077964;28;20198;-81
2022/04/07 07:07:39;;;;;;;3.80;1.50;;;;;;;;;;5085576;28;20205;-80
2022/04/07 07:10:08;;;;;;;1.65;1.55;;;;;;;;;;5085749;28;20221;-79
2022/04/07 07:12:35;;;;;;;1.25;1.10;;;;;;;;;;5087428;28;20198;-80
2022/04/07 07:15:03;;;;;;;1.40;1.30;;;;;;;;;;5081182;28;20544;-78
2022/04/07 07:17:33;;;;;;;2.50;2.13;;;;;;;;;;5082847;28;20197;-79
2022/04/07 07:20:02;;;;;;;1.45;1.23;;;;;;;;;;5088815;28;20239;-79
2022/04/07 07:22:31;;;;;;;3.45;1.60;;;;;;;;;;5087721;28;20235;-78
2022/04/07 07:24:58;;;;;;;1.30;1.10;;;;;;;;;;5084117;28;20225;-80
2022/04/07 07:27:27;;;;;;;2.28;1.65;;;;;;;;;;5084365;28;20199;-79
2022/04/07 07:29:54;;;;;;;1.25;1.15;;;;;;;;;;5086248;28;20741;-79
2022/04/07 07:32:21;;;;;;;8.20;1.88;;;;;;;;;;5075388;28;20373;-78
2022/04/07 07:34:49;;;;;;;1.70;1.20;;;;;;;;;;5068779;28;20802;-82
2022/04/07 07:37:18;;;;;;;1.42;1.33;;;;;;;;;;5076298;28;20537;-81
2022/04/07 07:39:46;;;;;;;2.08;1.52;;;;;;;;;;5076597;28;20264;-80
2022/04/07 07:42:13;;;;;;;1.48;1.05;;;;;;;;;;5081822;28;20662;-80
2022/04/07 07:44:41;;;;;;;2.65;1.33;;;;;;;;;;5072367;28;20214;-79
2022/04/07 07:47:08;;;;;;;1.20;0.90;;;;;;;;;;5082160;28;20555;-79
2022/04/07 07:49:35;;;;;;;3.33;1.35;;;;;;;;;;5081115;28;20221;-79
2022/04/07 07:52:02;;;;;;;2.28;1.33;;;;;;;;;;5088768;28;20210;-81
2022/04/07 07:54:30;;;;;;;1.65;0.95;;;;;;;;;;5077959;28;20209;-81
2022/04/07 07:56:57;;;;;;;1.50;1.23;;;;;;;;;;5076271;28;20202;-81
2022/04/07 07:59:24;;;;;;;1.70;1.40;;;;;;;;;;5075474;28;20205;-81
2022/04/07 08:01:52;;;;;;;1.60;1.10;;;;;;;;;;5075862;28;20205;-81
2022/04/07 08:04:19;;;;;;;1.17;1.02;;;;;;;;;;5087290;28;20204;-81
2022/04/07 08:06:46;;;;;;;1.40;1.10;;;;;;;;;;5091114;28;20198;-81
2022/04/07 08:09:14;;;;;;;1.60;1.15;;;;;;;;;;5088024;28;20205;-81
2022/04/07 08:11:41;;;;;;;2.42;1.40;;;;;;;;;;5073865;28;20209;-81
2022/04/07 08:14:09;;;;;;;1.63;1.00;;;;;;;;;;5080809;28;20261;-81
2022/04/07 08:16:36;;;;;;;5.43;1.20;;;;;;;;;;5078561;28;20675;-81
2022/04/07 08:19:04;;;;;;;2.85;1.58;;;;;;;;;;5072952;28;20289;-81
2022/04/07 08:21:31;;;;;;;1.80;1.00;;;;;;;;;;5075569;28;20212;-81
2022/04/07 08:23:59;;;;;;;2.28;1.05;;;;;;;;;;5081006;28;20225;-81
2022/04/07 08:26:26;;;;;;;1.20;1.10;;;;;;;;;;5072982;28;20194;-81
2022/04/07 08:28:53;;;;;;;1.27;0.82;;;;;;;;;;5084655;28;20703;-81
2022/04/07 08:31:20;;;;;;;1.30;1.20;;;;;;;;;;5074917;28;20664;-82
2022/04/07 08:33:47;;;;;;;1.95;1.33;;;;;;;;;;5086335;28;20553;-81
2022/04/07 08:36:16;;;;;;;1.25;1.00;;;;;;;;;;5086381;28;20568;-81
2022/04/07 08:38:43;;;;;;;1.27;1.17;;;;;;;;;;5071405;28;20198;-81
2022/04/07 08:41:11;;;;;;;1.25;1.08;;;;;;;;;;5073057;28;20216;-81
2022/04/07 08:43:40;;;;;;;1.20;1.05;;;;;;;;;;5080106;28;20225;-81
2022/04/07 08:46:08;;;;;;;1.50;0.98;;;;;;;;;;5076302;28;20200;-81
2022/04/07 08:48:37;;;;;;;0.98;0.80;;;;;;;;;;5074488;28;20201;-81
2022/04/07 08:51:06;;;;;;;1.33;1.00;;;;;;;;;;5083720;28;20220;-80
2022/04/07 08:53:34;;;;;;;1.48;1.05;;;;;;;;;;5080355;28;20201;-81
2022/04/07 08:56:02;;;;;;;1.95;1.10;;;;;;;;;;5075358;28;20201;-81
2022/04/07 08:58:29;;;;;;;1.40;0.98;;;;;;;;;;5080092;28;20200;-81
2022/04/07 09:00:56;;;;;;;1.33;0.95;;;;;;;;;;5085499;28;20198;-81
2022/04/07 09:03:23;;;;;;;1.58;1.20;;;;;;;;;;5091084;28;20206;-81
2022/04/07 09:05:57;;;;;;;4.63;1.08;;;;;;;;;;5085054;28;20677;-80
2022/04/07 09:08:31;;;;;;;2.70;0.90;;;;;;;;;;5082910;28;20194;-81
2022/04/07 09:11:00;;;;;;;1.00;0.80;;;;;;;;;;5087182;28;20704;-81
2022/04/07 09:13:30;;;;;;;1.60;1.15;;;;;;;;;;5093200;28;20197;-81
2022/04/07 09:15:57;;;;;;;3.15;1.05;;;;;;;;;;5089128;28;20205;-81
2022/04/07 09:18:25;;;;;;;1.08;0.95;;;;;;;;;;5089819;28;20277;-81
2022/04/07 09:20:52;;;;;;;1.00;0.90;;;;;;;;;;5094148;28;20193;-80
2022/04/07 09:23:19;;;;;;;1.40;1.08;;;;;;;;;;5098950;28;20201;-81
2022/04/07 09:25:49;;;;;;;1.10;0.88;;;;;;;;;;5079867;28;20200;-76
2022/04/07 09:28:27;;;;;;;1.33;0.80;;;;;;;;;;5087527;28;20296;-78
2022/04/07 09:30:54;;;;;;;1.63;0.90;;;;;;;;;;5085820;28;20291;-81
2022/04/07 09:33:22;;;;;;;1.13;0.82;;;;;;;;;;5085449;28;20194;-81
2022/04/07 09:35:59;;;;;;;1.25;0.82;;;;;;;;;;5090373;28;20595;-81
2022/04/07 09:38:26;;;;;;;1.25;1.00;;;;;;;;;;5072430;28;20725;-83
2022/04/07 09:40:54;;;;;;;1.10;0.90;;;;;;;;;;5076592;28;20201;-83
2022/04/07 09:43:22;;;;;;;1.02;0.82;;;;;;;;;;5074397;28;20277;-82
2022/04/07 09:45:53;;;;;;;1.05;0.90;;;;;;;;;;5076778;28;20283;-82
2022/04/07 09:48:20;;;;;;;2.53;1.20;;;;;;;;;;5081881;28;20202;-82
2022/04/07 09:51:02;;;;;;;1.75;1.10;;;;;;;;;;5077247;28;20221;-82
2022/04/07 09:53:31;;;;;;;1.20;0.90;;;;;;;;;;5071597;28;20271;-82
2022/04/07 09:55:58;;;;;;;1.45;0.85;;;;;;;;;;5074015;28;20645;-82
2022/04/07 09:58:25;;;;;;;2.70;1.05;;;;;;;;;;5074382;28;20200;-81
2022/04/07 10:00:56;;;;;;;1.00;0.85;;;;;;;;;;5075461;28;20660;-81
2022/04/07 10:03:23;;;;;;;2.35;1.00;;;;;;;;;;5076794;28;20225;-82
2022/04/07 10:05:52;;;;;;;1.25;0.90;;;;;;;;;;5073031;28;20193;-81
2022/04/07 10:08:19;;;;;;;2.30;1.00;;;;;;;;;;5074163;28;20205;-81
2022/04/07 10:10:46;;;;;;;1.00;0.90;;;;;;;;;;5076307;28;20216;-81
2022/04/07 10:13:14;;;;;;;1.48;1.10;;;;;;;;;;5073049;28;20534;-81
2022/04/07 10:15:41;;;;;;;1.30;1.00;;;;;;;;;;5075501;28;20202;-81
2022/04/07 10:18:15;;;;;;;2.53;1.30;;;;;;;;;;5075906;28;20196;-81
2022/04/07 10:20:44;;;;;;;1.30;1.20;;;;;;;;;;5076591;28;20206;-81
2022/04/07 10:23:18;;;;;;;3.33;1.15;;;;;;;;;;5074293;28;20210;-81
2022/04/07 10:25:48;;;;;;;1.45;0.98;;;;;;;;;;5071771;28;20229;-81
2022/04/07 10:28:16;;;;;;;1.00;0.90;;;;;;;;;;5072696;28;20295;-79
2022/04/07 10:30:49;;;;;;;1.30;1.00;;;;;;;;;;5068376;28;20266;-81
2022/04/07 10:33:34;;;;;;;2.00;1.00;;;;;;;;;;5080034;28;20209;-82
2022/04/07 10:36:02;;;;;;;1.45;1.33;;;;;;;;;;5077165;28;20247;-82
2022/04/07 10:38:39;;;;;;;1.02;0.85;;;;;;;;;;5073679;28;20208;-81
2022/04/07 10:41:06;;;;;;;1.02;0.90;;;;;;;;;;5077980;28;20658;-81
2022/04/07 10:43:38;;;;;;;1.20;1.00;;;;;;;;;;5077245;28;20198;-80
2022/04/07 10:46:14;;;;;;;1.30;1.00;;;;;;;;;;5085740;28;20209;-81
2022/04/07 10:48:46;;;;;;;2.20;1.00;;;;;;;;;;5082334;28;20579;-81
2022/04/07 10:51:14;;;;;;;1.30;1.00;;;;;;;;;;5072565;28;20209;-81
2022/04/07 10:54:01;;;;;;;1.35;0.95;;;;;;;;;;5080716;28;20247;-81
2022/04/07 10:56:32;;;;;;;1.20;1.00;;;;;;;;;;5075733;28;20291;-81
2022/04/07 10:59:12;;;;;;;1.20;0.80;;;;;;;;;;5084892;28;20201;-82
2022/04/07 11:01:57;;;;;;;1.30;1.00;;;;;;;;;;5083897;28;20205;-82
2022/04/07 11:04:44;;;;;;;3.08;1.00;;;;;;;;;;5086803;28;20220;-82
2022/04/07 11:07:14;;;;;;;1.13;0.95;;;;;;;;;;5081367;28;20206;-81
2022/04/07 11:09:42;;;;;;;1.00;0.80;;;;;;;;;;5087630;28;20210;-81
2022/04/07 11:12:10;;;;;;;1.65;1.55;;;;;;;;;;5090382;28;20292;-81
2022/04/07 11:14:37;;;;;;;1.60;1.20;;;;;;;;;;5091735;28;20278;-82
2022/04/07 11:17:07;;;;;;;1.05;0.95;;;;;;;;;;5081469;27;20216;-82
2022/04/07 11:19:40;;;;;;;1.10;0.98;;;;;;;;;;5088832;28;20292;-82
2022/04/07 11:22:12;;;;;;;1.10;0.90;;;;;;;;;;5090553;28;20201;-81
2022/04/07 11:24:45;;;;;;;1.10;0.85;;;;;;;;;;5084682;28;20734;-81
2022/04/07 11:27:31;;;;;;;0.90;0.80;;;;;;;;;;5080293;28;20205;-82
2022/04/07 11:30:05;;;;;;;1.27;1.17;;;;;;;;;;5089052;28;20232;-82
2022/04/07 11:32:32;;;;;;;1.38;1.27;;;;;;;;;;5071563;28;20206;-82
2022/04/07 11:35:12;;;;;;;1.40;1.10;;;;;;;;;;5081976;28;20664;-79
2022/04/07 11:37:40;;;;;;;2.60;1.40;;;;;;;;;;5084156;28;20201;-80
2022/04/07 11:40:09;;;;;;;2.85;1.05;;;;;;;;;;5086485;28;21266;-79
2022/04/07 11:42:37;;;;;;;1.95;1.40;;;;;;;;;;5084697;28;20202;-80
2022/04/07 11:45:04;;;;;;;1.25;1.15;;;;;;;;;;5075559;28;20201;-80
2022/04/07 11:47:33;;;;;;;1.10;1.00;;;;;;;;;;5076318;28;20206;-80
2022/04/07 11:50:02;;;;;;;1.38;1.27;;;;;;;;;;5084715;28;20583;-81
2022/04/07 11:52:30;;;;;;;1.80;1.40;;;;;;;;;;5088450;28;20529;-81
2022/04/07 11:54:57;;;;;;;1.42;1.20;;;;;;;;;;5078340;28;20198;-82
2022/04/07 11:57:26;;;;;;;1.55;1.30;;;;;;;;;;5086141;28;20227;-83
2022/04/07 11:59:57;;;;;;;2.25;1.42;;;;;;;;;;5090760;28;20213;-81
2022/04/07 12:02:25;;;;;;;1.40;1.20;;;;;;;;;;5067919;28;20751;-81
2022/04/07 12:04:56;;;;;;;1.30;1.20;;;;;;;;;;5079244;28;20209;-81
2022/04/07 12:07:23;;;;;;;2.50;1.10;;;;;;;;;;5066498;28;20238;-82
2022/04/07 12:09:50;;;;;;;2.20;1.48;;;;;;;;;;5068700;28;20194;-77
2022/04/07 12:12:18;;;;;;;2.00;1.80;;;;;;;;;;5080560;28;20213;-80
2022/04/07 12:14:46;;;;;;;1.58;1.48;;;;;;;;;;5066064;28;20205;-80
2022/04/07 12:17:14;;;;;;;2.08;1.88;;;;;;;;;;5068783;28;20663;-80
2022/04/07 12:19:44;;;;;;;1.63;1.38;;;;;;;;;;5075409;28;20201;-78
2022/04/07 12:22:12;;;;;;;3.83;2.47;;;;;;;;;;5081251;28;20676;-76
2022/04/07 12:24:39;;;;;;;2.13;1.50;;;;;;;;;;5074424;28;20554;-77
2022/04/07 12:27:08;;;;;;;2.50;1.73;;;;;;;;;;5074546;28;20194;-78
2022/04/07 12:29:35;;;;;;;1.80;1.70;;;;;;;;;;5073830;28;20217;-79
2022/04/07 12:32:06;;;;;;;3.05;1.85;;;;;;;;;;5070618;28;20217;-78
2022/04/07 12:34:34;;;;;;;1.65;1.40;;;;;;;;;;5072293;28;20198;-77
2022/04/07 12:37:01;;;;;;;1.80;1.23;;;;;;;;;;5072848;28;20657;-78
2022/04/07 12:39:31;;;;;;;3.20;1.80;;;;;;;;;;5076784;28;20288;-79
2022/04/07 12:42:04;;;;;;;1.60;1.50;;;;;;;;;;5077783;28;20660;-77
2022/04/07 12:44:34;;;;;;;4.70;1.75;;;;;;;;;;5074534;28;20202;-78
2022/04/07 12:47:04;;;;;;;3.63;1.40;;;;;;;;;;5069283;28;20198;-78
2022/04/07 12:49:34;;;;;;;2.38;1.50;;;;;;;;;;5071210;28;20930;-77
2022/04/07 12:52:01;;;;;;;8.70;1.55;;;;;;;;;;5075576;28;20213;-78
2022/04/07 12:54:29;;;;;;;1.75;1.00;;;;;;;;;;5084870;28;20205;-78
2022/04/07 12:57:08;;;;;;;1.15;1.05;;;;;;;;;;5073975;28;20872;-78
2022/04/07 12:59:35;;;;;;;3.30;1.50;;;;;;;;;;5079722;28;20323;-79
2022/04/07 13:02:02;;;;;;;2.05;1.10;;;;;;;;;;5077133;28;20191;-79
2022/04/07 13:04:44;;;;;;;2.47;1.30;;;;;;;;;;5077986;28;20194;-79
2022/04/07 13:07:12;;;;;;;3.65;1.83;;;;;;;;;;5083081;28;20200;-79
2022/04/07 13:09:39;;;;;;;4.32;1.15;;;;;;;;;;5078235;28;20312;-78
2022/04/07 13:12:07;;;;;;;3.88;1.55;;;;;;;;;;5078701;28;20214;-77
2022/04/07 13:14:34;;;;;;;2.58;1.30;;;;;;;;;;5089068;28;20230;-78
2022/04/07 13:17:01;;;;;;;2.33;1.13;;;;;;;;;;5084218;28;20247;-77
2022/04/07 13:19:28;;;;;;;2.55;1.20;;;;;;;;;;5089156;28;20185;-77
2022/04/07 13:21:55;;;;;;;2.95;1.25;;;;;;;;;;5097653;28;20194;-78
2022/04/07 13:24:24;;;;;;;5.22;1.42;;;;;;;;;;5078614;28;20575;-77
2022/04/07 13:26:51;;;;;;;5.55;1.90;;;;;;;;;;5083083;28;20198;-81
2022/04/07 13:29:18;;;;;;;5.57;1.65;;;;;;;;;;5092848;28;20213;-84
2022/04/07 13:31:46;;;;;;;5.55;1.48;;;;;;;;;;5088511;28;20221;-80
2022/04/07 13:34:13;;;;;;;5.97;1.40;;;;;;;;;;5081118;28;20193;-75
2022/04/07 13:36:40;;;;;;;4.85;1.30;;;;;;;;;;5088282;28;20198;-73
2022/04/07 13:39:07;;;;;;;5.53;1.25;;;;;;;;;;5084758;28;20202;-73
2022/04/07 13:41:37;;;;;;;6.55;1.55;;;;;;;;;;5080985;28;20252;-79
2022/04/07 13:44:04;;;;;;;5.13;1.20;;;;;;;;;;5082494;28;20303;-79
2022/04/07 13:46:31;;;;;;;4.30;1.35;;;;;;;;;;5083380;28;20198;-78
2022/04/07 13:48:58;;;;;;;4.68;1.45;;;;;;;;;;5089546;28;20197;-77
2022/04/07 13:51:26;;;;;;;3.13;1.15;;;;;;;;;;5080882;28;20213;-78
2022/04/07 13:53:53;;;;;;;3.40;1.38;;;;;;;;;;5086658;28;20202;-78
2022/04/07 13:56:20;;;;;;;2.45;1.08;;;;;;;;;;5080278;28;20201;-79
2022/04/07 13:58:49;;;;;;;3.72;1.10;;;;;;;;;;5076443;28;20292;-78
2022/04/07 14:01:20;;;;;;;4.95;1.30;;;;;;;;;;5083901;28;20216;-78
2022/04/07 14:03:47;;;;;;;5.95;1.30;;;;;;;;;;5086607;28;20200;-79
2022/04/07 14:06:15;;;;;;;3.40;1.30;;;;;;;;;;5087254;28;20202;-78
2022/04/07 14:08:42;;;;;;;3.70;1.23;;;;;;;;;;5084649;28;20276;-78
2022/04/07 14:11:09;;;;;;;2.83;1.13;;;;;;;;;;5076986;28;20210;-77
2022/04/07 14:13:36;;;;;;;4.60;1.45;;;;;;;;;;5073122;28;20190;-77
2022/04/07 14:16:05;;;;;;;3.22;1.58;;;;;;;;;;5085662;28;20197;-77
2022/04/07 14:18:33;;;;;;;2.72;1.15;;;;;;;;;;5074392;28;20268;-76
2022/04/07 14:21:00;;;;;;;3.63;1.70;;;;;;;;;;5084904;28;20217;-77
2022/04/07 14:23:28;;;;;;;1.90;1.17;;;;;;;;;;5085830;28;20232;-77
2022/04/07 14:25:56;;;;;;;4.15;1.40;;;;;;;;;;5098130;28;20192;-77
2022/04/07 14:28:24;;;;;;;3.05;1.30;;;;;;;;;;5078930;28;20213;-78
2022/04/07 14:30:51;;;;;;;3.38;1.02;;;;;;;;;;5081862;28;20202;-78
2022/04/07 14:33:20;;;;;;;5.20;1.45;;;;;;;;;;5080781;28;20680;-79
2022/04/07 14:35:47;;;;;;;6.55;1.60;;;;;;;;;;5089573;28;20595;-78
2022/04/07 14:38:14;;;;;;;3.40;1.20;;;;;;;;;;5092370;28;20207;-77
2022/04/07 14:40:42;;;;;;;4.00;1.50;;;;;;;;;;5079487;28;20299;-77
2022/04/07 14:43:09;;;;;;;3.05;1.30;;;;;;;;;;5085649;28;20197;-77
2022/04/07 14:45:37;;;;;;;3.10;1.75;;;;;;;;;;5081856;28;20285;-78
2022/04/07 14:48:05;;;;;;;4.20;1.40;;;;;;;;;;5082045;28;20659;-78
2022/04/07 14:50:34;;;;;;;4.15;1.48;;;;;;;;;;5084147;28;20308;-79